sensor_id;sensor_type;location;lat;lon;timestamp;P1;durP1;ratioP1;P2;durP2;ratioP2
70406;SDS011;57821;52.202;0.154;2023-07-31T18:22:33;11.13;;;3.40;;
70406;SDS011;57821;52.202;0.154;2023-07-31T18:25:00;10.50;;;3.17;;
70406;SDS011;57821;52.202;0.154;2023-07-31T18:27:27;11.23;;;4.28;;
70406;SDS011;57821;52.202;0.154;2023-07-31T18:29:53;15.25;;;4.85;;
70406;SDS011;57821;52.202;0.154;2023-07-31T18:32:20;11.27;;;3.92;;
70406;SDS011;57821;52.202;0.154;2023-07-31T18:34:46;16.13;;;5.90;;
70406;SDS011;57821;52.202;0.154;2023-07-31T18:37:13;13.63;;;4.28;;
70406;SDS011;57821;52.202;0.154;2023-07-31T18:39:40;12.25;;;4.47;;
70406;SDS011;57821;52.202;0.154;2023-07-31T18:42:06;13.77;;;4.53;;
70406;SDS011;57821;52.202;0.154;2023-07-31T18:44:33;15.43;;;4.55;;
70406;SDS011;57821;52.202;0.154;2023-07-31T18:47:03;13.52;;;4.28;;
70406;SDS011;57821;52.202;0.154;2023-07-31T18:49:29;10.25;;;3.67;;
70406;SDS011;57821;52.202;0.154;2023-07-31T18:51:56;13.48;;;4.60;;
70406;SDS011;57821;52.202;0.154;2023-07-31T18:54:23;11.05;;;3.70;;
70406;SDS011;57821;52.202;0.154;2023-07-31T18:56:49;10.50;;;3.80;;
70406;SDS011;57821;52.202;0.154;2023-07-31T18:59:16;12.73;;;4.47;;
70406;SDS011;57821;52.202;0.154;2023-07-31T19:01:42;11.60;;;4.28;;
70406;SDS011;57821;52.202;0.154;2023-07-31T19:04:09;12.30;;;3.72;;
70406;SDS011;57821;52.202;0.154;2023-07-31T19:06:36;13.50;;;3.53;;
70406;SDS011;57821;52.202;0.154;2023-07-31T19:09:03;10.52;;;4.30;;
70406;SDS011;57821;52.202;0.154;2023-07-31T19:11:30;10.23;;;3.78;;
70406;SDS011;57821;52.202;0.154;2023-07-31T19:13:58;12.88;;;3.70;;
70406;SDS011;57821;52.202;0.154;2023-07-31T19:16:25;10.93;;;3.75;;
70406;SDS011;57821;52.202;0.154;2023-07-31T19:18:52;15.35;;;4.35;;
70406;SDS011;57821;52.202;0.154;2023-07-31T19:21:18;11.93;;;4.00;;
70406;SDS011;57821;52.202;0.154;2023-07-31T19:23:45;9.80;;;3.80;;
70406;SDS011;57821;52.202;0.154;2023-07-31T19:26:11;12.63;;;3.67;;
70406;SDS011;57821;52.202;0.154;2023-07-31T19:28:38;11.25;;;4.00;;
70406;SDS011;57821;52.202;0.154;2023-07-31T19:31:04;12.70;;;4.32;;
70406;SDS011;57821;52.202;0.154;2023-07-31T19:33:31;12.07;;;4.10;;
70406;SDS011;57821;52.202;0.154;2023-07-31T19:35:58;11.55;;;3.95;;
70406;SDS011;57821;52.202;0.154;2023-07-31T19:38:25;13.20;;;3.47;;
70406;SDS011;57821;52.202;0.154;2023-07-31T19:40:52;11.90;;;3.70;;
70406;SDS011;57821;52.202;0.154;2023-07-31T19:43:19;12.63;;;4.72;;
70406;SDS011;57821;52.202;0.154;2023-07-31T19:45:45;13.50;;;4.00;;
70406;SDS011;57821;52.202;0.154;2023-07-31T19:48:12;8.18;;;3.22;;
70406;SDS011;57821;52.202;0.154;2023-07-31T19:50:39;15.73;;;4.43;;
70406;SDS011;57821;52.202;0.154;2023-07-31T19:53:05;12.50;;;4.38;;
70406;SDS011;57821;52.202;0.154;2023-07-31T19:55:32;12.43;;;3.80;;
70406;SDS011;57821;52.202;0.154;2023-07-31T19:57:58;12.75;;;4.13;;
70406;SDS011;57821;52.202;0.154;2023-07-31T20:00:25;11.80;;;4.28;;
70406;SDS011;57821;52.202;0.154;2023-07-31T20:02:52;13.50;;;4.32;;
70406;SDS011;57821;52.202;0.154;2023-07-31T20:05:18;16.95;;;5.03;;
70406;SDS011;57821;52.202;0.154;2023-07-31T20:07:45;15.73;;;4.35;;
70406;SDS011;57821;52.202;0.154;2023-07-31T20:10:12;10.60;;;4.18;;
70406;SDS011;57821;52.202;0.154;2023-07-31T20:12:38;15.60;;;4.35;;
70406;SDS011;57821;52.202;0.154;2023-07-31T20:15:05;12.27;;;3.72;;
70406;SDS011;57821;52.202;0.154;2023-07-31T20:17:32;14.30;;;4.45;;
70406;SDS011;57821;52.202;0.154;2023-07-31T20:19:58;13.77;;;4.72;;
70406;SDS011;57821;52.202;0.154;2023-07-31T20:22:25;14.20;;;4.38;;
70406;SDS011;57821;52.202;0.154;2023-07-31T20:24:51;12.57;;;4.50;;
70406;SDS011;57821;52.202;0.154;2023-07-31T20:27:19;13.25;;;4.05;;
70406;SDS011;57821;52.202;0.154;2023-07-31T20:29:47;13.70;;;4.32;;
70406;SDS011;57821;52.202;0.154;2023-07-31T20:32:14;15.73;;;4.10;;
70406;SDS011;57821;52.202;0.154;2023-07-31T20:34:40;14.52;;;4.00;;
70406;SDS011;57821;52.202;0.154;2023-07-31T20:37:07;12.63;;;4.47;;
70406;SDS011;57821;52.202;0.154;2023-07-31T20:39:34;13.77;;;4.57;;
70406;SDS011;57821;52.202;0.154;2023-07-31T20:42:00;13.15;;;4.55;;
70406;SDS011;57821;52.202;0.154;2023-07-31T20:44:27;13.25;;;3.83;;
70406;SDS011;57821;52.202;0.154;2023-07-31T20:46:53;10.48;;;4.00;;
70406;SDS011;57821;52.202;0.154;2023-07-31T20:49:20;14.48;;;4.45;;
70406;SDS011;57821;52.202;0.154;2023-07-31T20:51:46;14.35;;;4.40;;
70406;SDS011;57821;52.202;0.154;2023-07-31T20:54:13;11.23;;;4.50;;
70406;SDS011;57821;52.202;0.154;2023-07-31T20:56:40;17.95;;;4.47;;
70406;SDS011;57821;52.202;0.154;2023-07-31T20:59:07;13.85;;;4.45;;
70406;SDS011;57821;52.202;0.154;2023-07-31T21:01:34;13.32;;;4.03;;
70406;SDS011;57821;52.202;0.154;2023-07-31T21:04:00;12.63;;;4.32;;
70406;SDS011;57821;52.202;0.154;2023-07-31T21:06:27;15.77;;;4.78;;
70406;SDS011;57821;52.202;0.154;2023-07-31T21:08:53;10.73;;;4.35;;
70406;SDS011;57821;52.202;0.154;2023-07-31T21:11:20;9.68;;;3.50;;
70406;SDS011;57821;52.202;0.154;2023-07-31T21:13:47;17.65;;;4.22;;
70406;SDS011;57821;52.202;0.154;2023-07-31T21:16:13;18.10;;;4.40;;
70406;SDS011;57821;52.202;0.154;2023-07-31T21:18:40;14.10;;;4.35;;
70406;SDS011;57821;52.202;0.154;2023-07-31T21:21:06;14.77;;;4.88;;
70406;SDS011;57821;52.202;0.154;2023-07-31T21:23:33;15.85;;;4.35;;
70406;SDS011;57821;52.202;0.154;2023-07-31T21:25:59;13.88;;;4.45;;
70406;SDS011;57821;52.202;0.154;2023-07-31T21:28:26;15.27;;;4.25;;
70406;SDS011;57821;52.202;0.154;2023-07-31T21:30:53;11.88;;;4.60;;
70406;SDS011;57821;52.202;0.154;2023-07-31T21:33:19;12.93;;;4.97;;
70406;SDS011;57821;52.202;0.154;2023-07-31T21:35:46;15.70;;;4.47;;
70406;SDS011;57821;52.202;0.154;2023-07-31T21:38:12;13.15;;;4.50;;
70406;SDS011;57821;52.202;0.154;2023-07-31T21:40:39;15.55;;;4.57;;
70406;SDS011;57821;52.202;0.154;2023-07-31T21:43:05;13.05;;;4.30;;
70406;SDS011;57821;52.202;0.154;2023-07-31T21:45:32;14.70;;;4.55;;
70406;SDS011;57821;52.202;0.154;2023-07-31T21:47:59;15.30;;;4.50;;
70406;SDS011;57821;52.202;0.154;2023-07-31T21:50:25;15.43;;;4.35;;
70406;SDS011;57821;52.202;0.154;2023-07-31T21:52:52;12.27;;;4.20;;
70406;SDS011;57821;52.202;0.154;2023-07-31T21:55:18;14.15;;;4.53;;
70406;SDS011;57821;52.202;0.154;2023-07-31T21:57:45;18.48;;;5.25;;
70406;SDS011;57821;52.202;0.154;2023-07-31T22:00:12;17.52;;;4.85;;
70406;SDS011;57821;52.202;0.154;2023-07-31T22:02:39;17.33;;;4.93;;
70406;SDS011;57821;52.202;0.154;2023-07-31T22:05:06;13.88;;;5.20;;
70406;SDS011;57821;52.202;0.154;2023-07-31T22:07:33;14.80;;;4.65;;
70406;SDS011;57821;52.202;0.154;2023-07-31T22:09:59;15.13;;;4.95;;
70406;SDS011;57821;52.202;0.154;2023-07-31T22:12:26;15.95;;;5.35;;
70406;SDS011;57821;52.202;0.154;2023-07-31T22:14:53;12.15;;;5.03;;
70406;SDS011;57821;52.202;0.154;2023-07-31T22:17:19;13.88;;;5.20;;
70406;SDS011;57821;52.202;0.154;2023-07-31T22:19:46;14.23;;;4.72;;
70406;SDS011;57821;52.202;0.154;2023-07-31T22:22:12;15.38;;;4.82;;
70406;SDS011;57821;52.202;0.154;2023-07-31T22:24:39;16.88;;;5.28;;
70406;SDS011;57821;52.202;0.154;2023-07-31T22:27:06;15.68;;;5.65;;
70406;SDS011;57821;52.202;0.154;2023-07-31T22:29:33;17.80;;;4.95;;
70406;SDS011;57821;52.202;0.154;2023-07-31T22:31:59;15.23;;;5.70;;
70406;SDS011;57821;52.202;0.154;2023-07-31T22:34:26;17.83;;;5.20;;
70406;SDS011;57821;52.202;0.154;2023-07-31T22:36:52;13.90;;;4.75;;
70406;SDS011;57821;52.202;0.154;2023-07-31T22:39:19;18.08;;;5.68;;
70406;SDS011;57821;52.202;0.154;2023-07-31T22:41:45;17.55;;;5.70;;
70406;SDS011;57821;52.202;0.154;2023-07-31T22:44:12;16.33;;;5.72;;
70406;SDS011;57821;52.202;0.154;2023-07-31T22:46:39;15.57;;;5.30;;
70406;SDS011;57821;52.202;0.154;2023-07-31T22:49:06;15.25;;;5.28;;
70406;SDS011;57821;52.202;0.154;2023-07-31T22:51:32;15.93;;;6.20;;
70406;SDS011;57821;52.202;0.154;2023-07-31T22:53:59;21.05;;;5.57;;
70406;SDS011;57821;52.202;0.154;2023-07-31T22:56:25;21.77;;;6.35;;
70406;SDS011;57821;52.202;0.154;2023-07-31T22:58:52;15.02;;;4.97;;
70406;SDS011;57821;52.202;0.154;2023-07-31T23:01:18;13.65;;;5.45;;
70406;SDS011;57821;52.202;0.154;2023-07-31T23:03:45;16.00;;;6.15;;
70406;SDS011;57821;52.202;0.154;2023-07-31T23:06:13;17.77;;;5.78;;
70406;SDS011;57821;52.202;0.154;2023-07-31T23:08:40;11.80;;;5.07;;
70406;SDS011;57821;52.202;0.154;2023-07-31T23:11:06;13.52;;;5.40;;
70406;SDS011;57821;52.202;0.154;2023-07-31T23:13:33;18.13;;;5.60;;
70406;SDS011;57821;52.202;0.154;2023-07-31T23:15:59;16.60;;;6.25;;
70406;SDS011;57821;52.202;0.154;2023-07-31T23:18:26;19.35;;;5.53;;
70406;SDS011;57821;52.202;0.154;2023-07-31T23:20:53;12.40;;;5.13;;
70406;SDS011;57821;52.202;0.154;2023-07-31T23:23:19;15.38;;;5.90;;
70406;SDS011;57821;52.202;0.154;2023-07-31T23:25:46;16.02;;;6.18;;
70406;SDS011;57821;52.202;0.154;2023-07-31T23:28:13;12.65;;;5.25;;
70406;SDS011;57821;52.202;0.154;2023-07-31T23:30:40;18.77;;;6.00;;
70406;SDS011;57821;52.202;0.154;2023-07-31T23:33:07;12.25;;;5.53;;
70406;SDS011;57821;52.202;0.154;2023-07-31T23:35:34;15.95;;;5.88;;
70406;SDS011;57821;52.202;0.154;2023-07-31T23:38:00;19.95;;;6.18;;
70406;SDS011;57821;52.202;0.154;2023-07-31T23:40:27;14.95;;;5.40;;
70406;SDS011;57821;52.202;0.154;2023-07-31T23:42:54;14.75;;;6.00;;
70406;SDS011;57821;52.202;0.154;2023-07-31T23:45:20;14.85;;;5.45;;
70406;SDS011;57821;52.202;0.154;2023-07-31T23:47:47;17.35;;;5.10;;
70406;SDS011;57821;52.202;0.154;2023-07-31T23:50:14;16.15;;;5.47;;
70406;SDS011;57821;52.202;0.154;2023-07-31T23:52:41;17.48;;;4.97;;
70406;SDS011;57821;52.202;0.154;2023-07-31T23:55:08;17.17;;;6.65;;
70406;SDS011;57821;52.202;0.154;2023-07-31T23:57:35;18.85;;;5.32;;
